Time;durP1;ratioP1;P1;durP2;ratioP2;P2;SDS_P1;SDS_P2;PMS_P1;PMS_P2;Temp;Humidity;BMP_temperature;BMP_pressure;BME280_temperature;BME280_humidity;BME280_pressure;Samples;Min_cycle;Max_cycle;Signal;HPM_P1;HPM_P2
2023/05/25 00:00:39;;;;;;;3.00;1.57;;;8.50;99.90;;;;;;5012730;28;20198;-59
2023/05/25 00:03:04;;;;;;;5.93;1.17;;;8.50;99.90;;;;;;5027587;28;20248;-58
2023/05/25 00:05:30;;;;;;;3.03;1.30;;;8.60;99.90;;;;;;5032347;28;20261;-59
2023/05/25 00:07:56;;;;;;;6.13;2.07;;;8.70;99.90;;;;;;5032713;28;20187;-59
2023/05/25 00:10:21;;;;;;;3.40;1.40;;;8.80;99.40;;;;;;5013878;28;20542;-59
2023/05/25 00:12:47;;;;;;;2.90;1.77;;;8.90;98.90;;;;;;5012472;28;20770;-58
2023/05/25 00:15:13;;;;;;;3.93;1.67;;;9.00;98.40;;;;;;5017516;28;20178;-59
2023/05/25 00:17:39;;;;;;;3.90;1.73;;;9.00;98.00;;;;;;5032157;28;20542;-58
2023/05/25 00:20:06;;;;;;;4.23;1.83;;;9.20;98.10;;;;;;5031924;28;20190;-59
2023/05/25 00:22:36;;;;;;;3.67;1.60;;;9.10;98.10;;;;;;5019405;28;20426;-58
2023/05/25 00:25:03;;;;;;;2.33;1.27;;;9.20;98.10;;;;;;5019336;28;20500;-59
2023/05/25 00:27:29;;;;;;;4.40;1.33;;;9.20;97.50;;;;;;5032065;28;20564;-58
2023/05/25 00:29:55;;;;;;;3.73;1.43;;;9.30;98.20;;;;;;5025260;28;20454;-59
2023/05/25 00:32:21;;;;;;;5.70;1.67;;;9.40;98.00;;;;;;5011864;28;20422;-59
2023/05/25 00:34:47;;;;;;;5.53;1.50;;;9.40;98.30;;;;;;5018331;28;20182;-59
2023/05/25 00:37:13;;;;;;;3.63;1.30;;;9.40;98.20;;;;;;5031972;28;20187;-59
2023/05/25 00:39:38;;;;;;;5.10;1.60;;;9.50;98.40;;;;;;5018937;28;20639;-58
2023/05/25 00:42:06;;;;;;;5.27;1.10;;;9.50;98.20;;;;;;5031497;28;20187;-59
2023/05/25 00:44:32;;;;;;;4.70;1.83;;;9.50;98.10;;;;;;5018664;28;20265;-59
2023/05/25 00:47:01;;;;;;;2.43;1.17;;;9.40;97.90;;;;;;5032086;28;20445;-58
2023/05/25 00:49:29;;;;;;;3.30;1.67;;;9.30;97.70;;;;;;5011526;28;21092;-58
2023/05/25 00:51:56;;;;;;;3.40;1.80;;;9.30;97.80;;;;;;5012211;28;20509;-59
2023/05/25 00:54:22;;;;;;;6.13;2.20;;;9.40;98.20;;;;;;5024875;28;20430;-59
2023/05/25 00:56:56;;;;;;;4.07;1.60;;;9.40;97.90;;;;;;5016684;28;20512;-59
2023/05/25 00:59:47;;;;;;;9.17;1.63;;;9.40;97.20;;;;;;5011535;28;20425;-59
2023/05/25 01:02:16;;;;;;;5.73;1.87;;;9.50;97.00;;;;;;5018452;28;20413;-59
2023/05/25 01:04:45;;;;;;;3.43;1.67;;;9.60;97.30;;;;;;5024121;28;20530;-59
2023/05/25 01:07:24;;;;;;;5.50;1.33;;;9.70;97.10;;;;;;5030692;28;21059;-59
2023/05/25 01:09:58;;;;;;;3.67;1.50;;;9.70;97.00;;;;;;5018090;28;20458;-59
2023/05/25 01:12:28;;;;;;;3.20;1.37;;;9.70;96.90;;;;;;5022936;28;20507;-59
2023/05/25 01:14:55;;;;;;;2.40;1.13;;;9.60;96.80;;;;;;5009481;28;20422;-59
2023/05/25 01:17:21;;;;;;;3.13;1.47;;;9.70;97.30;;;;;;5015157;28;20424;-59
2023/05/25 01:19:47;;;;;;;3.30;1.13;;;9.60;97.50;;;;;;5027199;28;20930;-58
2023/05/25 01:22:27;;;;;;;6.87;2.17;;;9.50;97.80;;;;;;5027917;28;20426;-59
2023/05/25 01:25:03;;;;;;;5.27;1.67;;;9.50;98.00;;;;;;5018738;28;20248;-59
2023/05/25 01:27:38;;;;;;;4.80;2.20;;;9.40;98.10;;;;;;5023945;28;20525;-59
2023/05/25 01:30:07;;;;;;;2.47;1.40;;;9.30;98.20;;;;;;5025739;28;20461;-59
2023/05/25 01:32:34;;;;;;;4.57;2.10;;;9.10;98.50;;;;;;5011888;28;20883;-59
2023/05/25 01:35:00;;;;;;;4.03;1.60;;;9.10;98.80;;;;;;5012353;28;20416;-58
2023/05/25 01:37:26;;;;;;;15.20;2.20;;;9.10;98.90;;;;;;5012283;28;20423;-59
2023/05/25 01:39:52;;;;;;;3.40;1.70;;;9.00;99.00;;;;;;5011627;28;20468;-59
2023/05/25 01:42:18;;;;;;;2.43;1.10;;;9.00;99.20;;;;;;5011550;28;20438;-58
2023/05/25 01:44:44;;;;;;;7.57;2.07;;;8.80;99.40;;;;;;5011816;28;20183;-59
2023/05/25 01:47:27;;;;;;;4.20;1.73;;;8.90;99.70;;;;;;5013569;28;20596;-59
2023/05/25 01:50:12;;;;;;;4.87;1.20;;;8.80;99.30;;;;;;5031401;28;20457;-58
2023/05/25 01:52:44;;;;;;;4.27;1.60;;;8.80;99.20;;;;;;5012511;28;20468;-59
2023/05/25 01:55:16;;;;;;;3.60;1.53;;;8.80;99.50;;;;;;5010932;28;20418;-59
2023/05/25 01:57:45;;;;;;;5.13;1.60;;;8.70;99.20;;;;;;5024078;28;20413;-58
2023/05/25 02:00:12;;;;;;;6.70;2.53;;;8.70;99.20;;;;;;5017348;28;20432;-59
2023/05/25 02:02:41;;;;;;;8.50;1.73;;;8.80;99.40;;;;;;5011041;28;20429;-59
2023/05/25 02:05:08;;;;;;;2.83;1.43;;;8.80;99.60;;;;;;5011513;28;21138;-59
2023/05/25 02:07:35;;;;;;;10.43;1.67;;;8.80;99.00;;;;;;5011767;28;20445;-59
2023/05/25 02:10:00;;;;;;;3.73;1.70;;;8.90;98.90;;;;;;5011226;28;20524;-59
2023/05/25 02:12:26;;;;;;;5.73;2.40;;;8.80;98.90;;;;;;5011101;28;20993;-59
2023/05/25 02:14:51;;;;;;;5.13;2.03;;;8.80;99.00;;;;;;5011620;28;20182;-59
2023/05/25 02:17:17;;;;;;;6.03;2.00;;;8.90;99.20;;;;;;5014458;28;20209;-59
2023/05/25 02:19:44;;;;;;;4.73;1.43;;;8.90;99.00;;;;;;5027765;28;20187;-59
2023/05/25 02:22:10;;;;;;;8.30;3.13;;;8.90;98.80;;;;;;5018455;28;20767;-59
2023/05/25 02:24:36;;;;;;;5.80;2.30;;;8.80;98.80;;;;;;5024374;28;20430;-59
2023/05/25 02:27:03;;;;;;;4.80;1.83;;;8.80;98.80;;;;;;5018147;28;20178;-59
2023/05/25 02:29:29;;;;;;;9.63;2.37;;;8.80;98.90;;;;;;5027196;28;20493;-59
2023/05/25 02:31:55;;;;;;;3.60;1.83;;;8.90;99.20;;;;;;5010321;28;20452;-59
2023/05/25 02:34:20;;;;;;;5.77;1.73;;;8.80;99.30;;;;;;5010027;28;20218;-59
2023/05/25 02:36:46;;;;;;;4.37;1.60;;;8.80;99.30;;;;;;5020616;28;20413;-59
2023/05/25 02:39:12;;;;;;;8.37;2.00;;;8.80;99.50;;;;;;5029748;28;20186;-59
2023/05/25 02:41:38;;;;;;;2.70;1.40;;;8.80;99.50;;;;;;5030245;28;20235;-59
2023/05/25 02:44:04;;;;;;;4.90;1.60;;;8.70;99.40;;;;;;5016678;28;20418;-59
2023/05/25 02:46:30;;;;;;;4.10;1.63;;;8.70;99.70;;;;;;5030195;28;20193;-59
2023/05/25 02:48:57;;;;;;;5.93;1.63;;;8.70;99.90;;;;;;5027062;28;20828;-59
2023/05/25 02:51:23;;;;;;;5.10;1.90;;;8.60;99.90;;;;;;5010227;28;20237;-59
2023/05/25 02:53:48;;;;;;;6.70;2.50;;;8.60;99.90;;;;;;5009211;28;20430;-59
2023/05/25 02:56:14;;;;;;;7.90;1.47;;;8.60;99.90;;;;;;5010726;28;20259;-59
2023/05/25 02:58:40;;;;;;;3.47;1.80;;;8.50;99.90;;;;;;5027138;28;20183;-59
2023/05/25 03:01:09;;;;;;;2.80;1.67;;;8.40;99.90;;;;;;5019121;28;20754;-59
2023/05/25 03:03:34;;;;;;;8.93;2.30;;;8.30;99.90;;;;;;5012922;28;20179;-59
2023/05/25 03:06:02;;;;;;;18.30;2.17;;;8.30;99.90;;;;;;5022045;28;20924;-59
2023/05/25 03:08:28;;;;;;;8.47;1.83;;;8.20;99.90;;;;;;5017130;28;20194;-59
2023/05/25 03:10:54;;;;;;;4.37;1.60;;;8.10;99.90;;;;;;5023082;28;20457;-58
2023/05/25 03:13:20;;;;;;;5.60;1.83;;;8.00;99.90;;;;;;5019368;28;20466;-58
2023/05/25 03:15:45;;;;;;;3.67;1.60;;;7.90;99.90;;;;;;5023126;28;20183;-59
2023/05/25 03:18:11;;;;;;;2.80;1.50;;;8.00;99.90;;;;;;5029820;28;20254;-58
2023/05/25 03:20:37;;;;;;;3.53;1.20;;;8.00;99.90;;;;;;5032899;28;20182;-58
2023/05/25 03:23:02;;;;;;;5.10;2.17;;;7.90;99.90;;;;;;5032599;28;20289;-58
2023/05/25 03:25:28;;;;;;;5.07;2.10;;;7.80;99.90;;;;;;5022751;28;20189;-58
2023/05/25 03:27:53;;;;;;;11.13;1.60;;;7.90;99.90;;;;;;5027508;28;20182;-59
2023/05/25 03:30:22;;;;;;;7.90;2.17;;;7.90;99.90;;;;;;5032414;28;20241;-59
2023/05/25 03:32:48;;;;;;;4.13;2.10;;;7.80;99.90;;;;;;5016033;28;20198;-59
2023/05/25 03:35:13;;;;;;;8.87;2.00;;;7.80;99.90;;;;;;5012739;28;20419;-59
2023/05/25 03:37:39;;;;;;;11.37;2.70;;;7.70;99.90;;;;;;5026704;28;20770;-59
2023/05/25 03:40:05;;;;;;;9.33;1.97;;;7.80;99.90;;;;;;5022497;28;20178;-59
2023/05/25 03:42:31;;;;;;;9.23;2.50;;;7.80;99.90;;;;;;5032624;28;20202;-58
2023/05/25 03:44:57;;;;;;;5.90;1.60;;;7.90;99.90;;;;;;5022501;28;20448;-59
2023/05/25 03:47:22;;;;;;;2.50;1.73;;;7.80;99.90;;;;;;5027050;28;20199;-59
2023/05/25 03:49:48;;;;;;;6.87;1.70;;;7.90;99.90;;;;;;5032047;28;20260;-59
2023/05/25 03:52:13;;;;;;;6.47;1.47;;;7.80;99.90;;;;;;5029052;28;20179;-58
2023/05/25 03:54:39;;;;;;;11.53;2.80;;;7.80;99.90;;;;;;5022528;28;20683;-58
2023/05/25 03:57:05;;;;;;;7.33;2.77;;;7.80;99.90;;;;;;5026977;28;20213;-59
2023/05/25 03:59:31;;;;;;;5.17;1.83;;;7.80;99.90;;;;;;5022327;28;20179;-59
2023/05/25 04:01:56;;;;;;;6.77;3.20;;;7.70;99.90;;;;;;5012086;28;20918;-59
2023/05/25 04:04:22;;;;;;;7.07;2.63;;;7.60;99.90;;;;;;5012211;28;20190;-59
2023/05/25 04:06:48;;;;;;;13.03;3.60;;;7.70;99.90;;;;;;5025335;28;20206;-59
2023/05/25 04:09:14;;;;;;;8.03;2.07;;;7.70;99.90;;;;;;5012326;28;20274;-58
2023/05/25 04:11:40;;;;;;;4.37;1.40;;;7.70;99.90;;;;;;5012019;28;20600;-59
2023/05/25 04:14:05;;;;;;;6.83;3.10;;;7.70;99.90;;;;;;5012342;28;20434;-59
2023/05/25 04:16:31;;;;;;;3.33;1.87;;;7.80;99.90;;;;;;5025807;28;20187;-58
2023/05/25 04:18:57;;;;;;;6.33;2.07;;;7.70;99.90;;;;;;5026079;28;20186;-59
2023/05/25 04:21:22;;;;;;;5.30;2.00;;;7.60;99.90;;;;;;5031548;28;20253;-58
2023/05/25 04:23:48;;;;;;;4.70;2.10;;;7.80;99.90;;;;;;5021730;28;20266;-58
2023/05/25 04:26:17;;;;;;;11.77;2.43;;;7.80;99.90;;;;;;5015699;28;20615;-58
2023/05/25 04:28:42;;;;;;;5.87;1.80;;;7.80;99.90;;;;;;5032048;28;20194;-59
2023/05/25 04:31:08;;;;;;;9.50;2.97;;;7.70;99.90;;;;;;5018718;28;20781;-59
2023/05/25 04:33:37;;;;;;;4.23;1.93;;;7.60;99.90;;;;;;5021925;28;20210;-58
2023/05/25 04:36:07;;;;;;;3.87;1.40;;;7.70;99.90;;;;;;5012034;28;20190;-59
2023/05/25 04:38:34;;;;;;;9.67;3.07;;;7.70;99.90;;;;;;5012599;28;20426;-59
2023/05/25 04:41:01;;;;;;;3.20;1.70;;;7.70;99.90;;;;;;5025065;28;20497;-58
2023/05/25 04:43:28;;;;;;;5.33;2.23;;;7.80;99.90;;;;;;5023346;28;20427;-58
2023/05/25 04:45:55;;;;;;;4.87;2.13;;;7.90;99.90;;;;;;5018619;28;20848;-59
2023/05/25 04:48:21;;;;;;;6.10;3.00;;;7.90;99.90;;;;;;5031966;28;20995;-59
2023/05/25 04:50:47;;;;;;;7.20;2.80;;;8.00;99.90;;;;;;5027202;28;20474;-58
2023/05/25 04:53:13;;;;;;;15.27;2.80;;;8.10;99.90;;;;;;5011729;28;20418;-58
2023/05/25 04:55:38;;;;;;;7.70;2.53;;;8.10;99.90;;;;;;5016311;28;20186;-59
2023/05/25 04:58:04;;;;;;;10.30;2.80;;;8.10;99.90;;;;;;5031796;28;20431;-58
2023/05/25 05:00:30;;;;;;;4.70;2.30;;;8.20;99.90;;;;;;5026882;28;20675;-58
2023/05/25 05:02:57;;;;;;;5.90;2.33;;;8.20;99.90;;;;;;5011493;28;20191;-58
2023/05/25 05:05:23;;;;;;;7.37;3.10;;;8.40;99.90;;;;;;5011474;28;20770;-58
2023/05/25 05:07:49;;;;;;;6.30;2.10;;;8.40;99.90;;;;;;5022971;28;20932;-58
2023/05/25 05:10:14;;;;;;;4.17;1.83;;;8.60;99.90;;;;;;5017313;28;20283;-58
2023/05/25 05:12:40;;;;;;;4.30;2.57;;;8.50;99.90;;;;;;5030603;28;20289;-58
2023/05/25 05:15:06;;;;;;;5.67;2.57;;;8.50;99.90;;;;;;5013535;28;20675;-58
2023/05/25 05:17:32;;;;;;;9.10;2.70;;;8.60;99.90;;;;;;5014211;28;20191;-58
2023/05/25 05:19:58;;;;;;;6.87;2.27;;;8.80;99.90;;;;;;5030886;28;20449;-59
2023/05/25 05:22:23;;;;;;;6.10;2.30;;;8.90;99.90;;;;;;5028999;28;20468;-59
2023/05/25 05:24:49;;;;;;;4.77;2.93;;;8.90;99.90;;;;;;5025365;28;20274;-58
2023/05/25 05:27:15;;;;;;;3.10;1.70;;;9.00;99.90;;;;;;5020258;28;20174;-59
2023/05/25 05:29:41;;;;;;;5.73;2.47;;;9.10;99.90;;;;;;5011625;28;20814;-58
2023/05/25 05:32:07;;;;;;;4.23;2.40;;;9.20;99.90;;;;;;5022206;28;20508;-59
2023/05/25 05:34:33;;;;;;;6.30;2.80;;;9.30;99.90;;;;;;5030566;28;20308;-59
2023/05/25 05:36:59;;;;;;;4.50;2.43;;;9.40;99.90;;;;;;5019317;28;20484;-59
2023/05/25 05:39:26;;;;;;;4.40;2.37;;;9.40;99.90;;;;;;5015425;28;20898;-58
2023/05/25 05:41:52;;;;;;;5.73;2.50;;;9.50;99.90;;;;;;5018905;28;20175;-58
2023/05/25 05:44:20;;;;;;;4.27;2.20;;;9.60;99.90;;;;;;5010904;28;20431;-59
2023/05/25 05:46:45;;;;;;;4.63;2.20;;;9.70;99.90;;;;;;5011113;28;20529;-59
2023/05/25 05:49:11;;;;;;;3.83;1.93;;;9.80;99.90;;;;;;5010603;28;20545;-59
2023/05/25 05:51:38;;;;;;;17.93;2.33;;;10.00;99.90;;;;;;5022162;28;20259;-59
2023/05/25 05:54:04;;;;;;;9.83;2.70;;;9.80;99.90;;;;;;5024283;28;20524;-59
2023/05/25 05:56:30;;;;;;;6.53;2.43;;;9.90;99.90;;;;;;5013440;28;20187;-59
2023/05/25 05:58:56;;;;;;;3.77;2.10;;;10.00;99.90;;;;;;5030597;28;21148;-59
2023/05/25 06:01:22;;;;;;;6.67;2.60;;;10.00;99.90;;;;;;5030352;28;20463;-59
2023/05/25 06:03:48;;;;;;;6.07;3.10;;;10.00;99.90;;;;;;5030359;28;20456;-59
2023/05/25 06:06:15;;;;;;;6.83;2.77;;;10.30;99.90;;;;;;5018616;28;20422;-59
2023/05/25 06:08:42;;;;;;;10.00;2.60;;;10.50;99.90;;;;;;5009660;28;20505;-59
2023/05/25 06:11:07;;;;;;;5.60;2.30;;;10.80;99.90;;;;;;5009285;28;20497;-58
2023/05/25 06:13:33;;;;;;;5.57;2.70;;;10.70;99.90;;;;;;5029030;28;20775;-59
2023/05/25 06:15:59;;;;;;;7.20;2.67;;;10.90;99.90;;;;;;5018092;28;20830;-59
2023/05/25 06:18:25;;;;;;;8.30;2.57;;;11.00;99.90;;;;;;5026980;28;20635;-58
2023/05/25 06:20:50;;;;;;;6.83;2.73;;;11.30;99.90;;;;;;5030027;28;20642;-59
2023/05/25 06:23:17;;;;;;;6.40;2.53;;;11.50;99.60;;;;;;5028984;28;20205;-59
2023/05/25 06:25:46;;;;;;;6.50;3.20;;;11.60;99.50;;;;;;5021118;28;20294;-59
2023/05/25 06:28:12;;;;;;;3.40;1.80;;;11.80;99.60;;;;;;5019892;28;20508;-59
2023/05/25 06:30:37;;;;;;;6.70;2.00;;;12.00;99.00;;;;;;5022863;28;20560;-59
2023/05/25 06:33:03;;;;;;;7.30;2.53;;;12.10;98.70;;;;;;5027727;28;20201;-59
2023/05/25 06:35:29;;;;;;;6.40;3.40;;;12.30;98.50;;;;;;5016990;28;20183;-59
2023/05/25 06:37:54;;;;;;;12.90;3.40;;;12.50;98.20;;;;;;5016378;28;20694;-59
2023/05/25 06:40:21;;;;;;;6.50;3.13;;;12.10;98.20;;;;;;5030432;28;20187;-59
2023/05/25 06:42:46;;;;;;;11.50;3.77;;;12.20;98.50;;;;;;5014310;28;20228;-59
2023/05/25 06:45:12;;;;;;;5.03;2.87;;;11.90;98.90;;;;;;5014267;28;20426;-59
2023/05/25 06:47:38;;;;;;;13.10;2.90;;;12.00;99.10;;;;;;5027545;28;20244;-59
2023/05/25 06:50:05;;;;;;;7.20;2.17;;;12.10;98.70;;;;;;5015593;28;20218;-59
2023/05/25 06:52:30;;;;;;;6.10;2.53;;;12.20;99.00;;;;;;5013496;28;20278;-59
2023/05/25 06:54:56;;;;;;;3.43;2.13;;;12.20;99.10;;;;;;5026452;28;20500;-59
2023/05/25 06:57:23;;;;;;;10.77;3.00;;;12.30;99.00;;;;;;5024225;28;20217;-59
2023/05/25 06:59:49;;;;;;;9.90;3.27;;;12.60;98.90;;;;;;5033925;28;20303;-59
2023/05/25 07:02:14;;;;;;;4.73;2.93;;;12.40;98.40;;;;;;5014455;28;20820;-59
2023/05/25 07:04:40;;;;;;;10.37;3.10;;;12.60;98.70;;;;;;5013769;28;20186;-59
2023/05/25 07:07:06;;;;;;;5.57;2.43;;;12.80;98.70;;;;;;5032201;28;20213;-59
2023/05/25 07:09:32;;;;;;;5.83;2.93;;;12.90;98.00;;;;;;5020759;28;20209;-59
2023/05/25 07:11:57;;;;;;;11.67;3.70;;;12.90;98.00;;;;;;5031028;28;20187;-59
2023/05/25 07:14:24;;;;;;;6.07;2.97;;;13.40;98.00;;;;;;5021350;28;20184;-59
2023/05/25 07:16:50;;;;;;;7.10;2.43;;;13.70;97.30;;;;;;5019044;28;20308;-59
2023/05/25 07:19:15;;;;;;;8.50;3.50;;;14.00;97.20;;;;;;5032804;28;20512;-59
2023/05/25 07:21:41;;;;;;;10.50;3.50;;;13.60;97.80;;;;;;5032910;28;20181;-59
2023/05/25 07:24:07;;;;;;;6.10;3.20;;;13.60;97.80;;;;;;5033143;28;20199;-59
2023/05/25 07:26:33;;;;;;;6.53;3.43;;;13.20;97.60;;;;;;5030274;28;20186;-59
2023/05/25 07:29:00;;;;;;;8.37;3.53;;;13.50;98.30;;;;;;5033072;28;20179;-59
2023/05/25 07:31:25;;;;;;;4.93;2.90;;;13.70;97.90;;;;;;5014102;28;20475;-59
2023/05/25 07:33:52;;;;;;;7.00;3.47;;;13.80;97.50;;;;;;5012544;28;20775;-59
2023/05/25 07:36:18;;;;;;;11.07;3.80;;;13.90;97.50;;;;;;5032338;28;20183;-58
2023/05/25 07:38:43;;;;;;;8.40;3.27;;;14.10;97.50;;;;;;5032174;28;20424;-59
2023/05/25 07:41:10;;;;;;;6.97;2.83;;;14.20;97.30;;;;;;5019538;28;20228;-59
2023/05/25 07:43:36;;;;;;;9.80;2.70;;;14.30;97.00;;;;;;5020772;28;20624;-59
2023/05/25 07:46:02;;;;;;;8.30;3.97;;;14.60;96.50;;;;;;5013172;28;20440;-59
2023/05/25 07:48:27;;;;;;;15.77;3.97;;;14.50;96.90;;;;;;5023452;28;20202;-59
2023/05/25 07:50:53;;;;;;;4.47;2.80;;;14.80;96.60;;;;;;5027533;28;20215;-59
2023/05/25 07:53:18;;;;;;;9.67;3.87;;;15.00;96.20;;;;;;5011682;28;20645;-59
2023/05/25 07:55:44;;;;;;;8.00;3.10;;;15.40;95.60;;;;;;5025616;28;20183;-59
2023/05/25 07:58:10;;;;;;;6.40;3.23;;;16.70;94.70;;;;;;5029430;28;20217;-59
2023/05/25 08:00:35;;;;;;;5.87;2.67;;;17.20;93.20;;;;;;5019289;28;20658;-59
2023/05/25 08:03:01;;;;;;;5.57;2.93;;;17.20;92.60;;;;;;5020655;28;20266;-59
2023/05/25 08:05:27;;;;;;;4.07;2.33;;;18.00;92.60;;;;;;5025511;28;20201;-59
2023/05/25 08:07:53;;;;;;;6.57;2.60;;;19.30;90.60;;;;;;5016441;28;20189;-59
2023/05/25 08:10:19;;;;;;;10.27;3.97;;;21.00;89.10;;;;;;5027170;28;20229;-59
2023/05/25 08:12:45;;;;;;;5.67;2.33;;;21.30;85.60;;;;;;5017353;28;20191;-59
2023/05/25 08:15:12;;;;;;;9.70;3.00;;;22.70;79.80;;;;;;5026847;28;20190;-60
2023/05/25 08:17:38;;;;;;;9.00;2.73;;;20.70;81.40;;;;;;5031140;28;20187;-59
2023/05/25 08:20:07;;;;;;;6.27;2.90;;;20.60;84.30;;;;;;5030003;28;20433;-59
2023/05/25 08:22:33;;;;;;;9.30;3.33;;;21.10;83.10;;;;;;5029918;28;20186;-59
2023/05/25 08:24:59;;;;;;;11.00;2.33;;;21.50;82.40;;;;;;5024344;28;20438;-60
2023/05/25 08:27:24;;;;;;;7.20;3.40;;;23.10;79.10;;;;;;5024215;28;20956;-59
2023/05/25 08:29:50;;;;;;;6.50;2.60;;;22.00;79.80;;;;;;5024241;28;20678;-59
2023/05/25 08:32:16;;;;;;;13.97;2.97;;;20.70;83.20;;;;;;5017383;28;20580;-59
2023/05/25 08:34:41;;;;;;;10.20;3.23;;;21.90;81.50;;;;;;5016485;28;20265;-59
2023/05/25 08:37:07;;;;;;;9.20;3.17;;;21.40;81.30;;;;;;5030549;28;20893;-59
2023/05/25 08:39:33;;;;;;;6.60;2.73;;;21.60;82.10;;;;;;5024489;28;20320;-59
2023/05/25 08:41:59;;;;;;;6.40;3.10;;;21.00;83.50;;;;;;5012552;28;20217;-59
2023/05/25 08:44:26;;;;;;;6.37;2.97;;;22.40;81.60;;;;;;5027615;28;20179;-59
2023/05/25 08:46:54;;;;;;;5.57;2.47;;;21.80;80.30;;;;;;5012080;28;21077;-59
2023/05/25 08:49:21;;;;;;;8.30;2.73;;;21.50;84.30;;;;;;5030276;28;20448;-59
2023/05/25 08:51:50;;;;;;;6.23;3.27;;;23.00;78.80;;;;;;5018530;28;20430;-59
2023/05/25 08:54:32;;;;;;;7.30;3.50;;;23.40;77.90;;;;;;5024384;28;20491;-59
2023/05/25 08:57:11;;;;;;;10.23;2.33;;;20.90;80.20;;;;;;5024726;28;20487;-59
2023/05/25 08:59:43;;;;;;;8.43;3.07;;;19.50;85.10;;;;;;5021011;28;20428;-59
2023/05/25 09:02:28;;;;;;;10.47;3.27;;;21.90;83.70;;;;;;5013743;28;20417;-59
2023/05/25 09:04:55;;;;;;;9.10;3.10;;;23.00;80.30;;;;;;5011033;28;20417;-59
2023/05/25 09:07:21;;;;;;;4.90;3.10;;;23.60;77.10;;;;;;5018721;28;20505;-59
2023/05/25 09:09:47;;;;;;;5.70;2.60;;;24.90;77.10;;;;;;5030707;28;20561;-59
2023/05/25 09:12:14;;;;;;;14.23;3.37;;;25.30;73.90;;;;;;5026817;28;20961;-59
2023/05/25 09:14:46;;;;;;;6.30;2.97;;;24.20;76.60;;;;;;5029124;28;20429;-60
2023/05/25 09:17:16;;;;;;;7.40;3.13;;;24.60;78.20;;;;;;5029993;28;20401;-60
2023/05/25 09:19:42;;;;;;;7.03;3.20;;;25.50;73.80;;;;;;5031183;28;20898;-59
2023/05/25 09:22:11;;;;;;;4.93;2.53;;;23.40;75.40;;;;;;5031415;28;20483;-59
2023/05/25 09:24:40;;;;;;;9.30;3.27;;;22.00;78.80;;;;;;5045981;28;20568;-59
2023/05/25 09:27:09;;;;;;;11.70;4.13;;;20.50;81.80;;;;;;5051115;28;20420;-59
2023/05/25 09:29:35;;;;;;;6.80;3.43;;;19.50;85.70;;;;;;5050442;28;20456;-59
2023/05/25 09:32:06;;;;;;;12.10;4.63;;;17.80;90.10;;;;;;5050727;28;20456;-59
2023/05/25 09:34:35;;;;;;;5.97;2.80;;;17.70;90.70;;;;;;5050493;28;20271;-60
2023/05/25 09:37:10;;;;;;;19.27;4.03;;;18.20;90.30;;;;;;5051501;28;20759;-59
2023/05/25 09:39:36;;;;;;;13.07;3.30;;;18.10;90.60;;;;;;5050357;28;20416;-59
2023/05/25 09:42:02;;;;;;;5.67;3.03;;;18.50;90.00;;;;;;5049160;28;20457;-59
2023/05/25 09:44:28;;;;;;;11.63;3.57;;;18.50;89.10;;;;;;5042163;28;20438;-59
2023/05/25 09:46:54;;;;;;;7.67;3.17;;;18.20;90.00;;;;;;5050612;28;20197;-59
2023/05/25 09:49:20;;;;;;;9.30;3.77;;;18.00;90.60;;;;;;5041172;28;20182;-59
2023/05/25 09:51:47;;;;;;;4.90;3.10;;;18.40;90.70;;;;;;5049943;28;20420;-59
2023/05/25 09:54:13;;;;;;;7.47;3.23;;;19.10;89.80;;;;;;5050038;28;20265;-59
2023/05/25 09:56:38;;;;;;;14.53;3.47;;;19.80;88.40;;;;;;5050444;28;20845;-59
2023/05/25 09:59:04;;;;;;;7.37;2.80;;;19.70;88.70;;;;;;5050401;28;20503;-59
2023/05/25 10:01:31;;;;;;;6.23;3.17;;;19.70;87.50;;;;;;5049851;28;20209;-60
2023/05/25 10:03:58;;;;;;;18.43;3.27;;;19.70;87.70;;;;;;5050301;28;20190;-59
2023/05/25 10:06:25;;;;;;;10.80;3.50;;;19.70;88.20;;;;;;5050548;28;20428;-59
2023/05/25 10:08:52;;;;;;;5.03;2.67;;;19.80;88.80;;;;;;5050055;28;20475;-59
2023/05/25 10:11:20;;;;;;;7.70;3.37;;;20.10;85.70;;;;;;5050046;28;20569;-59
2023/05/25 10:13:46;;;;;;;7.33;2.93;;;20.20;86.90;;;;;;5048248;28;20424;-58
2023/05/25 10:16:18;;;;;;;6.87;3.03;;;20.20;87.20;;;;;;5049547;28;20474;-59
2023/05/25 10:18:50;;;;;;;8.33;3.60;;;20.20;86.20;;;;;;5041904;28;20843;-59
2023/05/25 10:21:18;;;;;;;9.10;3.77;;;20.30;87.50;;;;;;5029869;28;21048;-59
2023/05/25 10:23:49;;;;;;;5.00;2.63;;;19.70;87.20;;;;;;5037690;28;20428;-59
2023/05/25 10:26:20;;;;;;;9.57;3.70;;;19.70;88.30;;;;;;5050345;28;20904;-59
2023/05/25 10:28:50;;;;;;;4.60;2.93;;;19.30;89.10;;;;;;5039704;28;20781;-59
2023/05/25 10:31:17;;;;;;;12.40;3.97;;;19.30;90.00;;;;;;5047078;28;20463;-60
2023/05/25 10:33:43;;;;;;;6.83;3.80;;;19.50;89.50;;;;;;5049554;28;21051;-59
2023/05/25 10:36:12;;;;;;;13.60;3.67;;;19.50;90.00;;;;;;5050018;28;20432;-59
2023/05/25 10:38:43;;;;;;;5.30;2.70;;;19.70;89.10;;;;;;5050078;28;20455;-59
2023/05/25 10:41:10;;;;;;;4.63;2.40;;;19.20;89.80;;;;;;5050117;28;20428;-59
2023/05/25 10:43:37;;;;;;;18.40;3.47;;;19.20;90.50;;;;;;5041956;28;20431;-59
2023/05/25 10:46:05;;;;;;;6.93;3.00;;;19.30;90.30;;;;;;5048865;28;20987;-59
2023/05/25 10:48:37;;;;;;;6.07;3.10;;;19.80;90.20;;;;;;5041556;28;20436;-59
2023/05/25 10:51:03;;;;;;;4.73;2.50;;;20.40;89.20;;;;;;5037008;28;20807;-59
2023/05/25 10:53:28;;;;;;;8.33;3.27;;;19.80;88.90;;;;;;5036309;28;20459;-60
2023/05/25 10:55:57;;;;;;;8.43;2.87;;;19.90;89.80;;;;;;5049984;28;20261;-59
2023/05/25 10:58:25;;;;;;;10.53;4.30;;;19.70;89.50;;;;;;5049728;28;20634;-61
2023/05/25 11:01:00;;;;;;;8.10;3.00;;;18.70;90.00;;;;;;5049857;28;20436;-59
2023/05/25 11:03:44;;;;;;;5.67;2.70;;;18.80;90.60;;;;;;5049223;28;20427;-59
2023/05/25 11:06:10;;;;;;;6.60;2.93;;;19.50;89.70;;;;;;5049961;28;20444;-59
2023/05/25 11:08:58;;;;;;;6.20;2.77;;;19.50;90.30;;;;;;5049605;28;20455;-59
2023/05/25 11:11:43;;;;;;;7.90;3.43;;;19.80;90.30;;;;;;5023342;28;20476;-59
2023/05/25 11:14:25;;;;;;;6.33;2.67;;;20.20;88.40;;;;;;5046143;28;20426;-59
2023/05/25 11:17:09;;;;;;;5.60;2.60;;;20.10;90.90;;;;;;5049882;28;20443;-59
2023/05/25 11:19:47;;;;;;;6.57;3.00;;;20.50;89.10;;;;;;5032509;28;20429;-59
2023/05/25 11:22:20;;;;;;;5.40;2.60;;;20.90;87.90;;;;;;5030009;28;20451;-59
2023/05/25 11:24:50;;;;;;;6.50;3.00;;;20.60;86.90;;;;;;5046170;28;20447;-59
2023/05/25 11:27:23;;;;;;;6.57;2.97;;;20.50;88.30;;;;;;5050367;28;20527;-59
2023/05/25 11:29:53;;;;;;;6.10;3.10;;;20.60;88.20;;;;;;5052894;28;20505;-59
2023/05/25 11:32:19;;;;;;;7.27;3.10;;;20.70;88.10;;;;;;5053047;28;20515;-59
2023/05/25 11:34:47;;;;;;;5.73;2.83;;;21.00;87.20;;;;;;5053017;28;20450;-59
2023/05/25 11:37:16;;;;;;;6.03;2.53;;;20.90;87.00;;;;;;5053542;28;20803;-59
2023/05/25 11:39:45;;;;;;;7.30;1.97;;;20.80;87.50;;;;;;5052978;28;20432;-59
2023/05/25 11:42:11;;;;;;;4.80;2.80;;;20.40;89.50;;;;;;5052879;28;20811;-59
2023/05/25 11:44:37;;;;;;;3.50;2.27;;;20.30;87.90;;;;;;5044487;28;20451;-59
2023/05/25 11:47:17;;;;;;;13.00;3.30;;;20.40;89.10;;;;;;5052981;28;20888;-59
2023/05/25 11:49:45;;;;;;;12.87;3.40;;;20.20;88.60;;;;;;5043842;28;20428;-59
2023/05/25 11:52:18;;;;;;;5.50;2.70;;;20.10;89.80;;;;;;5052168;28;20499;-59
2023/05/25 11:54:45;;;;;;;6.23;2.93;;;19.80;90.00;;;;;;5052565;28;20424;-59
2023/05/25 11:57:15;;;;;;;5.80;2.73;;;19.40;90.30;;;;;;5052859;28;20680;-59
2023/05/25 11:59:50;;;;;;;8.50;2.90;;;19.70;90.40;;;;;;5030363;28;20418;-59
2023/05/25 12:02:16;;;;;;;5.57;3.60;;;19.60;90.20;;;;;;5050474;28;20726;-59
2023/05/25 12:04:53;;;;;;;6.23;2.83;;;19.80;90.20;;;;;;5052144;28;20523;-60
2023/05/25 12:07:18;;;;;;;14.87;2.70;;;20.10;90.00;;;;;;5052809;28;20539;-59
2023/05/25 12:09:44;;;;;;;3.87;2.43;;;20.10;89.80;;;;;;5051801;28;20425;-59
2023/05/25 12:12:10;;;;;;;6.03;2.30;;;20.60;89.10;;;;;;5052271;28;20205;-59
2023/05/25 12:14:49;;;;;;;4.57;2.47;;;20.40;88.60;;;;;;5049628;28;20513;-60
2023/05/25 12:17:16;;;;;;;9.43;2.30;;;20.00;89.40;;;;;;5052420;28;20181;-59
2023/05/25 12:19:42;;;;;;;5.67;3.03;;;19.70;90.20;;;;;;5033710;28;20444;-59
2023/05/25 12:22:08;;;;;;;4.30;2.20;;;19.90;90.10;;;;;;5032388;28;20512;-59
2023/05/25 12:24:34;;;;;;;8.77;2.93;;;19.70;90.00;;;;;;5033103;28;20455;-59
2023/05/25 12:27:01;;;;;;;6.50;3.17;;;20.00;90.30;;;;;;5052849;28;20548;-59
2023/05/25 12:29:27;;;;;;;5.10;2.43;;;20.80;89.50;;;;;;5052394;28;20215;-59
2023/05/25 12:32:02;;;;;;;15.53;2.60;;;21.10;88.20;;;;;;5051918;28;20432;-60
2023/05/25 12:34:27;;;;;;;7.60;3.20;;;21.00;88.00;;;;;;5052076;28;20799;-59
2023/05/25 12:36:55;;;;;;;6.33;2.97;;;20.60;90.00;;;;;;5052373;28;20423;-59
2023/05/25 12:39:29;;;;;;;8.97;2.87;;;20.80;89.40;;;;;;5051367;28;20188;-59
2023/05/25 12:41:57;;;;;;;9.17;3.30;;;21.30;89.80;;;;;;5051572;28;20854;-59
2023/05/25 12:44:24;;;;;;;4.40;3.00;;;21.50;86.60;;;;;;5043371;28;20424;-59
2023/05/25 12:46:51;;;;;;;5.00;2.50;;;21.30;85.70;;;;;;5052062;28;20445;-59
2023/05/25 12:49:27;;;;;;;6.37;2.83;;;21.00;90.60;;;;;;5036237;28;20421;-59
2023/05/25 12:51:53;;;;;;;4.97;2.47;;;21.20;90.30;;;;;;5045625;28;20806;-59